[2024-10-31 00:00:00, 2024-10-31 23:59:59] previous next
| time | temperature | air pressure | humidity | solar radiation | wind speed |
|---|---|---|---|---|---|
| 2024-10-31 08:27:00 | 13.0 | 1019.5 | 99.0 | 39.2 | 0.0 |
| 2024-10-31 08:47:00 | 14.0 | 1019.5 | 99.0 | 43.6 | 0.0 |
| 2024-10-31 09:06:59 | 15.3 | 1019.5 | 90.0 | 41.2 | 0.0 |
| 2024-10-31 09:27:01 | 16.5 | 1019.5 | 84.0 | 41.3 | 1.0 |
| 2024-10-31 09:47:00 | 17.5 | 1019.1 | 82.0 | 42.6 | 0.0 |
| 2024-10-31 10:07:00 | 17.1 | 1019.5 | 80.0 | 44.1 | 0.0 |
| 2024-10-31 10:27:00 | 16.7 | 1019.5 | 80.0 | 82.3 | 0.0 |
| 2024-10-31 10:47:00 | 16.6 | 1019.5 | 76.0 | 113.7 | 1.7 |
| 2024-10-31 11:07:01 | 17.6 | 1019.1 | 75.0 | 156.4 | 1.0 |
| 2024-10-31 11:27:00 | 17.6 | 1019.1 | 73.0 | 195.3 | 0.1 |
| 2024-10-31 11:47:01 | 18.8 | 1019.1 | 70.0 | 222.2 | 1.5 |
| 2024-10-31 12:07:00 | 18.4 | 1019.1 | 70.0 | 221.3 | 0.7 |
| 2024-10-31 12:31:04 | 19.5 | 1018.8 | 65.0 | 231.3 | 1.4 |
| 2024-10-31 12:51:04 | 18.8 | 1018.5 | 67.0 | 228.7 | 0.0 |
| 2024-10-31 13:11:04 | 18.4 | 1018.5 | 69.0 | 225.1 | 0.0 |
| 2024-10-31 13:31:04 | 17.9 | 1018.1 | 70.0 | 194.5 | 0.0 |
| 2024-10-31 13:51:04 | 20.4 | 1018.1 | 61.0 | 210.6 | 0.8 |
| 2024-10-31 14:11:06 | 17.5 | 1018.1 | 69.0 | 160.3 | 0.7 |
| 2024-10-31 14:31:04 | 18.4 | 1018.1 | 68.0 | 135.6 | 0.0 |
CSV export: /station/IWELLEN5/data?period=20241031T000000/20241031T235959&format=csv&tz=GMT